Time;durP1;ratioP1;P1;durP2;ratioP2;P2;SDS_P1;SDS_P2;PMS_P1;PMS_P2;Temp;Humidity;BMP_temperature;BMP_pressure;BME280_temperature;BME280_humidity;BME280_pressure;Samples;Min_cycle;Max_cycle;Signal;HPM_P1;HPM_P2
2023/12/29 00:00:55;;;;;;;;;;;8.40;99.90;;;;;;5101407;28;19955;-69
2023/12/29 00:03:22;;;;;;;;;;;8.40;99.90;;;;;;5106707;28;19951;-70
2023/12/29 00:05:47;;;;;;;;;;;8.40;99.90;;;;;;5097216;28;19979;-70
2023/12/29 00:08:15;;;;;;;;;;;8.40;99.90;;;;;;5097180;28;19939;-70
2023/12/29 00:10:42;;;;;;;;;;;8.40;99.90;;;;;;5097322;28;19928;-70
2023/12/29 00:13:09;;;;;;;;;;;8.30;99.90;;;;;;5106567;28;19958;-71
2023/12/29 00:15:36;;;;;;;;;;;8.30;99.90;;;;;;5097385;28;19948;-71
2023/12/29 00:18:02;;;;;;;;;;;8.30;99.90;;;;;;5102706;28;19996;-70
2023/12/29 00:20:29;;;;;;;;;;;8.30;99.90;;;;;;5111158;28;19920;-70
2023/12/29 00:22:58;;;;;;;;;;;8.30;99.90;;;;;;5099807;28;19925;-69
2023/12/29 00:25:26;;;;;;;;;;;8.30;99.90;;;;;;5098408;28;20202;-70
2023/12/29 00:27:53;;;;;;;;;;;8.20;99.90;;;;;;5102498;28;19944;-71
2023/12/29 00:30:20;;;;;;;;;;;8.20;99.90;;;;;;5098051;28;19926;-71
2023/12/29 00:32:47;;;;;;;;;;;8.30;99.90;;;;;;5094561;28;19920;-71
2023/12/29 00:35:13;;;;;;;;;;;8.30;99.90;;;;;;5100102;28;19924;-73
2023/12/29 00:37:40;;;;;;;;;;;8.30;99.90;;;;;;5100566;28;19951;-70
2023/12/29 00:40:07;;;;;;;;;;;8.40;99.90;;;;;;5106680;28;19926;-71
2023/12/29 00:42:36;;;;;;;;;;;8.40;99.90;;;;;;5107805;28;20214;-70
2023/12/29 00:45:02;;;;;;;;;;;8.40;99.90;;;;;;5120103;28;19951;-71
2023/12/29 00:47:29;;;;;;;;;;;8.40;99.90;;;;;;5101478;28;19983;-70
2023/12/29 00:49:55;;;;;;;;;;;8.50;99.90;;;;;;5087288;28;20207;-72
2023/12/29 00:52:22;;;;;;;;;;;8.50;99.90;;;;;;5102914;28;19920;-70
2023/12/29 00:54:49;;;;;;;;;;;8.50;99.90;;;;;;5098034;28;20182;-72
2023/12/29 00:57:15;;;;;;;;;;;8.60;99.90;;;;;;5106628;28;19983;-70
2023/12/29 00:59:43;;;;;;;;;;;8.60;99.90;;;;;;5090598;28;19928;-71
2023/12/29 01:02:10;;;;;;;;;;;8.60;99.90;;;;;;5087430;28;19983;-70
2023/12/29 01:04:38;;;;;;;;;;;8.70;99.90;;;;;;5101381;28;19979;-69
2023/12/29 01:07:04;;;;;;;;;;;8.70;99.90;;;;;;5102151;28;19951;-72
2023/12/29 01:09:31;;;;;;;;;;;8.70;99.90;;;;;;5108055;28;19920;-69
2023/12/29 01:11:57;;;;;;;;;;;8.70;99.90;;;;;;5107888;28;19920;-71
2023/12/29 01:14:24;;;;;;;;;;;8.70;99.90;;;;;;5105471;28;19926;-70
2023/12/29 01:16:52;;;;;;;;;;;8.70;99.90;;;;;;5101066;28;19979;-71
2023/12/29 01:19:19;;;;;;;;;;;8.70;99.90;;;;;;5105108;28;19979;-70
2023/12/29 01:21:45;;;;;;;;;;;8.70;99.90;;;;;;5114757;28;19920;-70
2023/12/29 01:24:12;;;;;;;;;;;8.70;99.90;;;;;;5108290;28;19955;-70
2023/12/29 01:26:38;;;;;;;;;;;8.60;99.90;;;;;;5106424;28;20109;-71
2023/12/29 01:29:05;;;;;;;;;;;8.60;99.90;;;;;;5106881;28;19939;-69
2023/12/29 01:31:32;;;;;;;;;;;8.70;99.90;;;;;;5107599;28;19920;-70
2023/12/29 01:34:00;;;;;;;;;;;8.60;99.90;;;;;;5105701;28;19984;-70
2023/12/29 01:36:27;;;;;;;;;;;8.60;99.90;;;;;;5106017;28;19920;-71
2023/12/29 01:38:54;;;;;;;;;;;8.60;99.90;;;;;;5110318;28;19955;-71
2023/12/29 01:41:21;;;;;;;;;;;8.60;99.90;;;;;;5097906;28;19991;-70
2023/12/29 01:44:06;;;;;;;;;;;8.60;99.90;;;;;;5105845;28;19963;-71
2023/12/29 01:46:34;;;;;;;;;;;8.60;99.90;;;;;;5105561;28;19951;-70
2023/12/29 01:49:02;;;;;;;;;;;8.60;99.90;;;;;;5114614;28;20270;-70
2023/12/29 01:51:30;;;;;;;;;;;8.60;99.90;;;;;;5103860;28;19963;-70
2023/12/29 01:53:57;;;;;;;;;;;8.70;99.90;;;;;;5105708;28;20141;-70
2023/12/29 01:56:24;;;;;;;;;;;8.70;99.90;;;;;;5105814;28;19955;-71
2023/12/29 01:58:52;;;;;;;;;;;8.70;99.90;;;;;;5096731;28;19983;-70
2023/12/29 02:01:19;;;;;;;;;;;8.70;99.90;;;;;;5104858;28;19983;-70
2023/12/29 02:03:46;;;;;;;;;;;8.80;99.90;;;;;;5111308;28;19966;-70
2023/12/29 02:06:14;;;;;;;;;;;8.80;99.90;;;;;;5106749;28;19983;-70
2023/12/29 02:08:41;;;;;;;;;;;8.80;99.90;;;;;;5096581;28;19991;-70
2023/12/29 02:11:08;;;;;;;;;;;8.80;99.90;;;;;;5106391;28;19920;-71
2023/12/29 02:13:34;;;;;;;;;;;8.80;99.90;;;;;;5111749;28;19955;-70
2023/12/29 02:16:05;;;;;;;;;;;8.80;99.90;;;;;;5107104;28;19920;-70
2023/12/29 02:18:33;;;;;;;;;;;8.90;99.90;;;;;;5104769;28;20193;-70
2023/12/29 02:21:02;;;;;;;;;;;8.90;99.90;;;;;;5101340;28;20008;-71
2023/12/29 02:23:30;;;;;;;;;;;8.90;99.90;;;;;;5102538;28;19920;-70
2023/12/29 02:26:02;;;;;;;;;;;8.90;99.90;;;;;;5106752;28;20261;-70
2023/12/29 02:28:29;;;;;;;;;;;8.90;99.90;;;;;;5104923;28;20185;-70
2023/12/29 02:30:57;;;;;;;;;;;8.90;99.90;;;;;;5105100;28;20000;-70
2023/12/29 02:33:25;;;;;;;;;;;8.90;99.90;;;;;;5096611;28;19962;-72
2023/12/29 02:35:53;;;;;;;;;;;8.90;99.90;;;;;;5115560;28;19920;-70
2023/12/29 02:38:20;;;;;;;;;;;8.90;99.90;;;;;;5104915;28;20160;-71
2023/12/29 02:40:46;;;;;;;;;;;8.90;99.90;;;;;;5103746;28;19970;-70
2023/12/29 02:43:14;;;;;;;;;;;8.90;99.90;;;;;;5109119;28;19961;-71
2023/12/29 02:45:41;;;;;;;;;;;8.90;99.90;;;;;;5097576;28;19983;-71
2023/12/29 02:48:08;;;;;;;;;;;8.90;99.90;;;;;;5105448;28;19956;-72
2023/12/29 02:50:34;;;;;;;;;;;8.90;99.90;;;;;;5103902;28;19987;-70
2023/12/29 02:53:01;;;;;;;;;;;8.80;99.90;;;;;;5106517;28;19951;-72
2023/12/29 02:55:28;;;;;;;;;;;8.80;99.90;;;;;;5104363;28;19966;-70
2023/12/29 02:57:54;;;;;;;;;;;8.90;99.90;;;;;;5107228;28;19926;-70
2023/12/29 03:00:22;;;;;;;;;;;8.90;99.90;;;;;;5114387;28;19951;-71
2023/12/29 03:02:49;;;;;;;;;;;8.80;99.90;;;;;;5103297;28;20396;-70
2023/12/29 03:05:16;;;;;;;;;;;8.90;99.90;;;;;;5106010;28;19920;-72
2023/12/29 03:07:43;;;;;;;;;;;8.90;99.90;;;;;;5104077;28;19928;-70
2023/12/29 03:10:09;;;;;;;;;;;8.80;99.90;;;;;;5103196;28;19966;-71
2023/12/29 03:12:36;;;;;;;;;;;8.80;99.90;;;;;;5104090;28;19959;-71
2023/12/29 03:15:03;;;;;;;;;;;8.90;99.90;;;;;;5110936;28;19919;-71
2023/12/29 03:17:31;;;;;;;;;;;8.90;99.90;;;;;;5106546;28;19960;-71
2023/12/29 03:19:57;;;;;;;;;;;8.90;99.90;;;;;;5107615;28;19955;-71
2023/12/29 03:22:24;;;;;;;;;;;8.90;99.90;;;;;;5102321;28;19970;-69
2023/12/29 03:24:51;;;;;;;;;;;8.90;99.90;;;;;;5104976;28;19999;-69
2023/12/29 03:27:17;;;;;;;;;;;8.90;99.90;;;;;;5103894;28;19920;-71
2023/12/29 03:29:44;;;;;;;;;;;8.90;99.90;;;;;;5103483;28;19999;-69
2023/12/29 03:32:10;;;;;;;;;;;8.90;99.90;;;;;;5107713;28;19932;-70
2023/12/29 03:34:38;;;;;;;;;;;8.90;99.90;;;;;;5104973;28;19920;-71
2023/12/29 03:37:05;;;;;;;;;;;8.90;99.90;;;;;;5104530;28;20166;-70
2023/12/29 03:39:35;;;;;;;;;;;8.90;99.90;;;;;;5106519;28;19920;-70
2023/12/29 03:42:01;;;;;;;;;;;8.90;99.90;;;;;;5104312;28;19920;-70
2023/12/29 03:44:28;;;;;;;;;;;8.90;99.90;;;;;;5103680;28;19926;-70
2023/12/29 03:46:54;;;;;;;;;;;9.00;99.90;;;;;;5103356;28;19920;-69
2023/12/29 03:49:21;;;;;;;;;;;9.00;99.90;;;;;;5108111;28;20190;-71
2023/12/29 03:51:49;;;;;;;;;;;9.00;99.90;;;;;;5105863;28;19955;-70
2023/12/29 03:54:17;;;;;;;;;;;9.00;99.90;;;;;;5103213;28;19920;-71
2023/12/29 03:56:43;;;;;;;;;;;9.00;99.90;;;;;;5105121;28;19923;-70
2023/12/29 03:59:10;;;;;;;;;;;9.00;99.90;;;;;;5106824;28;19934;-71
2023/12/29 04:01:37;;;;;;;;;;;9.00;99.90;;;;;;5105360;28;19985;-70
2023/12/29 04:04:03;;;;;;;;;;;9.00;99.90;;;;;;5105888;28;20214;-70
2023/12/29 04:06:31;;;;;;;;;;;9.00;99.90;;;;;;5105174;28;19955;-70
2023/12/29 04:08:58;;;;;;;;;;;9.00;99.90;;;;;;5109606;28;19926;-70
2023/12/29 04:11:25;;;;;;;;;;;9.00;99.90;;;;;;5108019;28;20175;-70
2023/12/29 04:13:52;;;;;;;;;;;9.00;99.90;;;;;;5106697;28;19935;-71
2023/12/29 04:16:18;;;;;;;;;;;9.00;99.90;;;;;;5107290;28;19924;-70
2023/12/29 04:18:45;;;;;;;;;;;8.90;99.90;;;;;;5109401;28;19970;-70
2023/12/29 04:21:14;;;;;;;;;;;8.90;99.90;;;;;;5110207;28;19998;-70
2023/12/29 04:23:41;;;;;;;;;;;8.90;99.90;;;;;;5108225;28;20178;-71
2023/12/29 04:26:09;;;;;;;;;;;8.90;99.90;;;;;;5107151;28;19920;-70
2023/12/29 04:28:36;;;;;;;;;;;8.90;99.90;;;;;;5110202;28;19979;-70
2023/12/29 04:31:03;;;;;;;;;;;9.00;99.90;;;;;;5108346;28;20038;-70
2023/12/29 04:33:30;;;;;;;;;;;9.00;99.90;;;;;;5112607;28;19943;-70
2023/12/29 04:35:56;;;;;;;;;;;9.00;99.90;;;;;;5107304;28;19921;-70
2023/12/29 04:38:23;;;;;;;;;;;9.00;99.90;;;;;;5106817;28;19962;-70
2023/12/29 04:40:50;;;;;;;;;;;9.00;99.90;;;;;;5105966;28;20181;-71
2023/12/29 04:43:18;;;;;;;;;;;9.00;99.90;;;;;;5108626;28;19920;-72
2023/12/29 04:45:44;;;;;;;;;;;8.90;99.90;;;;;;5112992;28;19962;-71
2023/12/29 04:48:12;;;;;;;;;;;8.90;99.90;;;;;;5106975;28;19921;-72
2023/12/29 04:50:38;;;;;;;;;;;8.90;99.90;;;;;;5105804;28;19927;-70
2023/12/29 04:53:05;;;;;;;;;;;8.90;99.90;;;;;;5109054;28;20116;-71
2023/12/29 04:55:31;;;;;;;;;;;8.90;99.90;;;;;;5106537;28;19927;-70
2023/12/29 04:57:58;;;;;;;;;;;8.90;99.90;;;;;;5098542;28;20162;-71
2023/12/29 05:00:26;;;;;;;;;;;8.90;99.90;;;;;;5102787;28;19920;-71
2023/12/29 05:02:52;;;;;;;;;;;8.90;99.90;;;;;;5100846;28;19942;-70
2023/12/29 05:05:19;;;;;;;;;;;8.90;99.90;;;;;;5110738;28;19927;-70
2023/12/29 05:07:46;;;;;;;;;;;8.90;99.90;;;;;;5113266;28;19983;-72
2023/12/29 05:10:12;;;;;;;;;;;8.90;99.90;;;;;;5109072;28;19928;-70
2023/12/29 05:12:39;;;;;;;;;;;8.90;99.90;;;;;;5107430;28;20257;-71
2023/12/29 05:15:06;;;;;;;;;;;8.90;99.90;;;;;;5111386;28;19927;-72
2023/12/29 05:17:34;;;;;;;;;;;8.90;99.90;;;;;;5113120;28;19926;-70
2023/12/29 05:20:01;;;;;;;;;;;8.90;99.90;;;;;;5108501;28;19952;-70
2023/12/29 05:22:27;;;;;;;;;;;8.90;99.90;;;;;;5108988;28;20282;-70
2023/12/29 05:24:57;;;;;;;;;;;8.90;99.90;;;;;;5108764;28;19979;-70
2023/12/29 05:27:24;;;;;;;;;;;8.90;99.90;;;;;;5106344;28;19920;-71
2023/12/29 05:29:50;;;;;;;;;;;8.80;99.90;;;;;;5109850;28;20206;-70
2023/12/29 05:32:17;;;;;;;;;;;8.80;99.90;;;;;;5101800;28;19926;-71
2023/12/29 05:34:45;;;;;;;;;;;8.80;99.90;;;;;;5105473;28;19920;-72
2023/12/29 05:37:12;;;;;;;;;;;8.80;99.90;;;;;;5108166;28;19975;-70
2023/12/29 05:39:38;;;;;;;;;;;8.80;99.90;;;;;;5111182;28;19920;-71
2023/12/29 05:42:05;;;;;;;;;;;8.80;99.90;;;;;;5105661;28;19920;-71
2023/12/29 05:44:32;;;;;;;;;;;8.80;99.90;;;;;;5096880;28;19920;-71
2023/12/29 05:46:58;;;;;;;;;;;8.80;99.90;;;;;;5112101;28;19927;-70
2023/12/29 05:49:25;;;;;;;;;;;8.80;99.90;;;;;;5106263;28;19962;-70
2023/12/29 05:51:53;;;;;;;;;;;8.80;99.90;;;;;;5112052;28;19927;-70
2023/12/29 05:54:20;;;;;;;;;;;8.80;99.90;;;;;;5105188;28;19927;-72
2023/12/29 05:56:47;;;;;;;;;;;8.80;99.90;;;;;;5104846;28;19927;-71
2023/12/29 05:59:13;;;;;;;;;;;8.80;99.90;;;;;;5105481;28;19952;-69
2023/12/29 06:01:40;;;;;;;;;;;8.80;99.90;;;;;;5095740;28;20205;-72
2023/12/29 06:04:07;;;;;;;;;;;8.80;99.90;;;;;;5110745;28;20229;-70
2023/12/29 06:06:33;;;;;;;;;;;8.80;99.90;;;;;;5096166;28;20118;-70
2023/12/29 06:09:01;;;;;;;;;;;8.80;99.90;;;;;;5107135;28;20113;-71
2023/12/29 06:11:28;;;;;;;;;;;8.80;99.90;;;;;;5104872;28;19920;-70
2023/12/29 06:13:54;;;;;;;;;;;8.80;99.90;;;;;;5104637;28;20260;-70
2023/12/29 06:16:21;;;;;;;;;;;8.80;99.90;;;;;;5108464;28;20233;-70
2023/12/29 06:18:48;;;;;;;;;;;8.90;99.90;;;;;;5096913;28;19920;-71
2023/12/29 06:21:15;;;;;;;;;;;8.80;99.90;;;;;;5105352;28;19927;-70
2023/12/29 06:23:41;;;;;;;;;;;8.80;99.90;;;;;;5109472;28;19958;-69
2023/12/29 06:26:16;;;;;;;;;;;8.80;99.90;;;;;;5106709;28;19931;-71
2023/12/29 06:28:43;;;;;;;;;;;8.80;99.90;;;;;;5105983;28;19927;-70
2023/12/29 06:31:10;;;;;;;;;;;8.80;99.90;;;;;;5104612;28;20179;-70
2023/12/29 06:33:36;;;;;;;;;;;8.70;99.90;;;;;;5104316;28;19928;-70
2023/12/29 06:36:03;;;;;;;;;;;8.70;99.90;;;;;;5107562;28;19947;-75
2023/12/29 06:38:30;;;;;;;;;;;8.60;99.90;;;;;;5107491;28;19959;-69
2023/12/29 06:40:57;;;;;;;;;;;8.60;99.90;;;;;;5100841;28;19920;-70
2023/12/29 06:43:25;;;;;;;;;;;8.60;99.90;;;;;;5104927;28;19958;-70
2023/12/29 06:45:51;;;;;;;;;;;8.60;99.90;;;;;;5104893;28;20180;-70
2023/12/29 06:48:18;;;;;;;;;;;8.60;99.90;;;;;;5104240;28;20165;-68
2023/12/29 06:50:45;;;;;;;;;;;8.60;99.90;;;;;;5101143;28;20180;-70
2023/12/29 06:53:11;;;;;;;;;;;8.50;99.90;;;;;;5114196;28;20218;-72
2023/12/29 06:55:38;;;;;;;;;;;8.50;99.90;;;;;;5106594;28;20201;-68
2023/12/29 06:58:05;;;;;;;;;;;8.60;99.90;;;;;;5105744;28;19920;-70
2023/12/29 07:00:33;;;;;;;;;;;8.50;99.90;;;;;;5106353;28;20001;-70
2023/12/29 07:03:01;;;;;;;;;;;8.50;99.90;;;;;;5106125;28;19927;-70
2023/12/29 07:05:27;;;;;;;;;;;8.50;99.90;;;;;;5107036;28;19928;-70
2023/12/29 07:07:54;;;;;;;;;;;8.50;99.90;;;;;;5107079;28;19919;-70
2023/12/29 07:10:20;;;;;;;;;;;8.50;99.90;;;;;;5110744;28;19962;-69
2023/12/29 07:12:47;;;;;;;;;;;8.60;99.90;;;;;;5107611;28;19943;-70
2023/12/29 07:15:14;;;;;;;;;;;8.50;99.90;;;;;;5105454;28;20118;-70
2023/12/29 07:17:42;;;;;;;;;;;8.50;99.90;;;;;;5104465;28;20404;-70
2023/12/29 07:20:11;;;;;;;;;;;8.60;99.90;;;;;;5104062;28;20202;-69
2023/12/29 07:22:38;;;;;;;;;;;8.50;99.90;;;;;;5103363;28;20114;-70
2023/12/29 07:25:05;;;;;;;;;;;8.60;99.90;;;;;;5106335;28;19943;-71
2023/12/29 07:27:31;;;;;;;;;;;8.50;99.90;;;;;;5106445;28;19993;-70
2023/12/29 07:29:58;;;;;;;;;;;8.60;99.90;;;;;;5104223;28;19943;-72
2023/12/29 07:32:25;;;;;;;;;;;8.60;99.90;;;;;;5103471;28;19920;-71
2023/12/29 07:34:53;;;;;;;;;;;8.60;99.90;;;;;;5100369;28;19920;-71
2023/12/29 07:37:20;;;;;;;;;;;8.60;99.90;;;;;;5104090;28;19943;-70
2023/12/29 07:39:47;;;;;;;;;;;8.60;99.90;;;;;;5105785;28;19920;-70
2023/12/29 07:42:16;;;;;;;;;;;8.60;99.90;;;;;;5099055;28;20109;-70
2023/12/29 07:44:43;;;;;;;;;;;8.60;99.90;;;;;;5094849;28;19928;-70
2023/12/29 07:47:10;;;;;;;;;;;8.60;99.90;;;;;;5103182;28;19924;-70
2023/12/29 07:49:37;;;;;;;;;;;8.60;99.90;;;;;;5103459;28;19920;-72
2023/12/29 07:52:05;;;;;;;;;;;8.60;99.90;;;;;;5113208;28;19919;-71
2023/12/29 07:54:31;;;;;;;;;;;8.60;99.90;;;;;;5103992;28;20221;-73
2023/12/29 07:56:58;;;;;;;;;;;8.60;99.90;;;;;;5096670;28;20114;-70
2023/12/29 07:59:25;;;;;;;;;;;8.60;99.90;;;;;;5102714;28;19979;-70
2023/12/29 08:01:51;;;;;;;;;;;8.70;99.90;;;;;;5099429;28;19927;-70
2023/12/29 08:04:18;;;;;;;;;;;8.70;99.90;;;;;;5099047;28;19920;-69
2023/12/29 08:06:45;;;;;;;;;;;8.70;99.90;;;;;;5107199;28;19920;-71
2023/12/29 08:09:13;;;;;;;;;;;8.70;99.90;;;;;;5101257;28;19920;-72
2023/12/29 08:11:41;;;;;;;;;;;8.80;99.90;;;;;;5100905;28;19999;-70
2023/12/29 08:14:08;;;;;;;;;;;8.80;99.90;;;;;;5102765;28;19920;-71
2023/12/29 08:16:38;;;;;;;;;;;8.80;99.90;;;;;;5095103;28;19983;-71
2023/12/29 08:19:05;;;;;;;;;;;8.80;99.90;;;;;;5103828;28;19955;-70
2023/12/29 08:21:31;;;;;;;;;;;8.80;99.90;;;;;;5100696;28;19942;-71
2023/12/29 08:23:58;;;;;;;;;;;8.80;99.90;;;;;;5095615;28;20118;-70
2023/12/29 08:26:26;;;;;;;;;;;8.90;99.90;;;;;;5110916;28;20252;-72
2023/12/29 08:28:53;;;;;;;;;;;8.90;99.90;;;;;;5095527;28;20148;-71
2023/12/29 08:31:20;;;;;;;;;;;8.90;99.90;;;;;;5096024;28;20282;-73
2023/12/29 08:33:47;;;;;;;;;;;8.90;99.90;;;;;;5108007;28;19928;-72
2023/12/29 08:36:13;;;;;;;;;;;8.90;99.90;;;;;;5109691;28;20206;-70
2023/12/29 08:38:40;;;;;;;;;;;8.90;99.90;;;;;;5108583;28;19928;-70
2023/12/29 08:41:07;;;;;;;;;;;8.90;99.90;;;;;;5091660;28;19927;-70
2023/12/29 08:43:36;;;;;;;;;;;8.90;99.90;;;;;;5103556;28;19990;-71
2023/12/29 08:46:03;;;;;;;;;;;9.00;99.90;;;;;;5102816;28;19927;-71
2023/12/29 08:48:30;;;;;;;;;;;9.00;99.90;;;;;;5101668;28;19932;-70
2023/12/29 08:50:57;;;;;;;;;;;9.00;99.90;;;;;;5101035;28;19926;-69
2023/12/29 08:53:23;;;;;;;;;;;9.00;99.90;;;;;;5102823;28;20237;-71
2023/12/29 08:55:50;;;;;;;;;;;9.00;99.90;;;;;;5105087;28;20103;-70
2023/12/29 08:58:17;;;;;;;;;;;9.00;99.90;;;;;;5111691;28;19920;-71
2023/12/29 09:00:44;;;;;;;;;;;9.00;99.90;;;;;;5108695;28;19983;-70
2023/12/29 09:03:11;;;;;;;;;;;9.10;99.90;;;;;;5114105;28;19942;-70
2023/12/29 09:05:38;;;;;;;;;;;9.10;99.90;;;;;;5110504;28;19974;-71
2023/12/29 09:08:05;;;;;;;;;;;9.10;99.90;;;;;;5106501;28;19965;-73
2023/12/29 09:10:32;;;;;;;;;;;9.10;99.90;;;;;;5101220;28;19954;-69
2023/12/29 09:12:58;;;;;;;;;;;9.10;99.90;;;;;;5104294;28;19995;-70
2023/12/29 09:15:25;;;;;;;;;;;9.10;99.90;;;;;;5106533;28;19928;-73
2023/12/29 09:17:53;;;;;;;;;;;9.10;99.90;;;;;;5105984;28;19983;-70
2023/12/29 09:20:20;;;;;;;;;;;9.10;99.90;;;;;;5108233;28;19955;-69
2023/12/29 09:22:46;;;;;;;;;;;9.10;99.90;;;;;;5107476;28;19920;-70
2023/12/29 09:25:13;;;;;;;;;;;9.10;99.90;;;;;;5107591;28;20229;-71
2023/12/29 09:27:40;;;;;;;;;;;9.00;99.90;;;;;;5106730;28;20149;-72
2023/12/29 09:30:07;;;;;;;;;;;9.10;99.90;;;;;;5114486;28;19927;-69
2023/12/29 09:32:34;;;;;;;;;;;9.00;99.90;;;;;;5106566;28;19963;-68
2023/12/29 09:35:03;;;;;;;;;;;9.00;99.90;;;;;;5101118;28;19920;-70
2023/12/29 09:37:29;;;;;;;;;;;9.00;99.90;;;;;;5108580;28;19941;-71
2023/12/29 09:39:56;;;;;;;;;;;9.00;99.90;;;;;;5110033;28;19986;-69
2023/12/29 09:42:23;;;;;;;;;;;9.00;99.90;;;;;;5104981;28;19920;-69
2023/12/29 09:44:50;;;;;;;;;;;9.00;99.90;;;;;;5105935;28;19924;-69
2023/12/29 09:47:19;;;;;;;;;;;9.00;99.90;;;;;;5105162;28;19952;-69
2023/12/29 09:49:46;;;;;;;;;;;8.90;99.90;;;;;;5105806;28;19920;-69
2023/12/29 09:52:15;;;;;;;;;;;8.90;99.90;;;;;;5105767;28;19987;-69
2023/12/29 09:54:42;;;;;;;;;;;8.90;99.90;;;;;;5105581;28;19920;-69
2023/12/29 09:57:09;;;;;;;;;;;8.80;99.90;;;;;;5105808;28;19927;-69
2023/12/29 09:59:37;;;;;;;;;;;8.80;99.90;;;;;;5105725;28;19952;-70
2023/12/29 10:02:05;;;;;;;;;;;8.70;99.90;;;;;;5105690;28;19942;-69
2023/12/29 10:04:32;;;;;;;;;;;8.80;99.90;;;;;;5105446;28;19987;-69
2023/12/29 10:07:03;;;;;;;;;;;8.90;99.90;;;;;;5104445;28;19920;-70
2023/12/29 10:09:31;;;;;;;;;;;8.90;99.90;;;;;;5105056;28;19973;-69
2023/12/29 10:11:58;;;;;;;;;;;8.90;99.90;;;;;;5097455;28;20306;-69
2023/12/29 10:14:26;;;;;;;;;;;8.90;99.90;;;;;;5096786;28;20285;-69
2023/12/29 10:16:57;;;;;;;;;;;8.80;99.90;;;;;;5104783;28;19942;-68
2023/12/29 10:19:28;;;;;;;;;;;8.90;99.90;;;;;;5105219;28;19948;-69
2023/12/29 10:21:58;;;;;;;;;;;8.90;99.90;;;;;;5097637;28;19948;-69
2023/12/29 10:24:25;;;;;;;;;;;8.90;99.90;;;;;;5104919;28;19920;-69
2023/12/29 10:26:54;;;;;;;;;;;8.90;99.90;;;;;;5105180;28;19920;-69
2023/12/29 10:29:21;;;;;;;;;;;9.00;99.90;;;;;;5105275;28;20013;-69
2023/12/29 10:31:47;;;;;;;;;;;9.00;99.90;;;;;;5105283;28;19973;-70
2023/12/29 10:34:21;;;;;;;;;;;9.00;99.90;;;;;;5105000;28;19986;-70
2023/12/29 10:36:47;;;;;;;;;;;9.10;99.90;;;;;;5105057;28;19928;-69
2023/12/29 10:39:15;;;;;;;;;;;9.10;99.90;;;;;;5104876;28;19955;-69
2023/12/29 10:41:41;;;;;;;;;;;9.10;99.90;;;;;;5104528;28;19920;-68
2023/12/29 10:44:09;;;;;;;;;;;9.10;99.90;;;;;;5106674;28;19920;-69
2023/12/29 10:46:36;;;;;;;;;;;9.10;99.90;;;;;;5104747;28;19947;-71
2023/12/29 10:49:08;;;;;;;;;;;9.10;99.90;;;;;;5106560;28;19919;-70
2023/12/29 10:51:34;;;;;;;;;;;9.10;99.90;;;;;;5105715;28;20121;-69
2023/12/29 10:54:01;;;;;;;;;;;9.10;99.90;;;;;;5103541;28;19927;-69
2023/12/29 10:56:28;;;;;;;;;;;9.20;99.90;;;;;;5101145;28;19986;-68
2023/12/29 10:58:58;;;;;;;;;;;9.20;99.90;;;;;;5111009;28;19920;-68
2023/12/29 11:01:26;;;;;;;;;;;9.30;99.90;;;;;;5105563;28;19919;-67
2023/12/29 11:03:58;;;;;;;;;;;9.30;99.90;;;;;;5105067;28;19991;-68
2023/12/29 11:06:25;;;;;;;;;;;9.40;99.90;;;;;;5116726;28;19919;-71
2023/12/29 11:08:51;;;;;;;;;;;9.40;99.90;;;;;;5102884;28;19992;-68
2023/12/29 11:11:18;;;;;;;;;;;9.40;99.90;;;;;;5103799;28;19920;-68
2023/12/29 11:13:46;;;;;;;;;;;9.50;99.90;;;;;;5105942;28;19927;-69
2023/12/29 11:16:14;;;;;;;;;;;9.50;99.90;;;;;;5110795;28;19947;-68
2023/12/29 11:18:44;;;;;;;;;;;9.50;99.90;;;;;;5104583;28;19958;-70
2023/12/29 11:21:12;;;;;;;;;;;9.60;99.90;;;;;;5106191;28;19948;-69
2023/12/29 11:23:38;;;;;;;;;;;9.60;99.90;;;;;;5107608;28;19923;-68
2023/12/29 11:26:07;;;;;;;;;;;9.60;99.90;;;;;;5104025;28;19951;-68
2023/12/29 11:28:33;;;;;;;;;;;9.60;99.90;;;;;;5108969;28;19920;-68
2023/12/29 11:31:00;;;;;;;;;;;9.70;99.90;;;;;;5104367;28;20230;-68
2023/12/29 11:33:28;;;;;;;;;;;9.70;99.90;;;;;;5103582;28;19950;-69
2023/12/29 11:35:57;;;;;;;;;;;9.80;99.90;;;;;;5108999;28;20257;-71
2023/12/29 11:38:32;;;;;;;;;;;9.70;99.90;;;;;;5107077;28;19919;-69
2023/12/29 11:41:03;;;;;;;;;;;9.80;99.90;;;;;;5107205;28;19983;-67
2023/12/29 11:43:29;;;;;;;;;;;9.80;99.90;;;;;;5102586;28;19955;-68
2023/12/29 11:45:56;;;;;;;;;;;9.80;99.90;;;;;;5103228;28;19954;-69
2023/12/29 11:48:41;;;;;;;;;;;9.80;99.90;;;;;;5103103;28;19958;-67
2023/12/29 11:51:23;;;;;;;;;;;9.80;99.90;;;;;;5098053;28;19951;-69
2023/12/29 11:53:51;;;;;;;;;;;9.80;99.90;;;;;;5102327;28;19926;-69
2023/12/29 11:56:17;;;;;;;;;;;9.80;99.90;;;;;;5112028;28;20190;-70
2023/12/29 11:58:44;;;;;;;;;;;9.80;99.90;;;;;;5103306;28;20151;-68
2023/12/29 12:01:11;;;;;;;;;;;10.00;99.90;;;;;;5103846;28;20229;-68
2023/12/29 12:03:37;;;;;;;;;;;10.20;99.90;;;;;;5103815;28;20053;-68
2023/12/29 12:06:04;;;;;;;;;;;10.40;99.90;;;;;;5103337;28;19947;-68
2023/12/29 12:08:30;;;;;;;;;;;10.60;99.90;;;;;;5106026;28;20165;-68
2023/12/29 12:11:19;;;;;;;;;;;10.80;99.90;;;;;;5097112;28;19924;-68
2023/12/29 12:13:46;;;;;;;;;;;10.80;99.90;;;;;;5101900;28;19928;-68
2023/12/29 12:16:31;;;;;;;;;;;10.90;99.90;;;;;;5104445;28;20303;-69
2023/12/29 12:18:58;;;;;;;;;;;11.00;99.90;;;;;;5107261;28;19956;-69
2023/12/29 12:21:26;;;;;;;;;;;11.00;99.90;;;;;;5096068;28;20407;-69
2023/12/29 12:23:54;;;;;;;;;;;11.00;99.90;;;;;;5094910;28;19947;-70
2023/12/29 12:26:24;;;;;;;;;;;10.90;99.90;;;;;;5091841;28;20219;-70
2023/12/29 12:28:52;;;;;;;;;;;10.90;99.90;;;;;;5097827;28;20173;-71
2023/12/29 12:31:19;;;;;;;;;;;10.90;99.90;;;;;;5093558;28;19980;-70
2023/12/29 12:33:53;;;;;;;;;;;10.90;99.90;;;;;;5093734;28;19927;-70
2023/12/29 12:36:20;;;;;;;;;;;10.90;99.90;;;;;;5102278;28;19920;-71
2023/12/29 12:38:51;;;;;;;;;;;10.90;99.90;;;;;;5098856;28;19983;-69
2023/12/29 12:41:18;;;;;;;;;;;10.90;99.90;;;;;;5108003;28;19958;-70
2023/12/29 12:43:51;;;;;;;;;;;10.90;99.90;;;;;;5106562;28;19987;-68
2023/12/29 12:46:18;;;;;;;;;;;10.90;99.90;;;;;;5102910;28;20021;-69
2023/12/29 12:48:46;;;;;;;;;;;10.90;99.90;;;;;;5105786;28;19962;-68
2023/12/29 12:51:13;;;;;;;;;;;10.80;99.90;;;;;;5112123;28;19928;-67
2023/12/29 12:53:40;;;;;;;;;;;10.70;99.90;;;;;;5102445;28;20233;-69
2023/12/29 12:56:07;;;;;;;;;;;10.60;99.90;;;;;;5113886;28;19971;-69
2023/12/29 12:58:34;;;;;;;;;;;10.50;99.90;;;;;;5107875;28;19930;-69
2023/12/29 13:01:02;;;;;;;;;;;10.50;99.90;;;;;;5106072;28;19966;-69
2023/12/29 13:03:29;;;;;;;;;;;10.50;99.90;;;;;;5105469;28;19948;-69
2023/12/29 13:05:57;;;;;;;;;;;10.50;99.90;;;;;;5104133;28;20170;-69
2023/12/29 13:08:24;;;;;;;;;;;10.40;99.90;;;;;;5101218;28;19987;-69
2023/12/29 13:10:51;;;;;;;;;;;10.40;99.90;;;;;;5103943;28;19920;-69
2023/12/29 13:13:19;;;;;;;;;;;10.40;99.90;;;;;;5105541;28;19958;-69
2023/12/29 13:15:46;;;;;;;;;;;10.40;99.90;;;;;;5104771;28;19927;-69
2023/12/29 13:18:14;;;;;;;;;;;10.40;99.90;;;;;;5091143;28;19920;-68
2023/12/29 13:20:45;;;;;;;;;;;10.40;99.90;;;;;;5098872;28;19992;-69
2023/12/29 13:23:11;;;;;;;;;;;10.50;99.90;;;;;;5095679;28;19927;-69
2023/12/29 13:25:39;;;;;;;;;;;10.50;99.90;;;;;;5104311;28;19920;-69
2023/12/29 13:28:07;;;;;;;;;;;10.50;99.90;;;;;;5094477;28;19920;-70
2023/12/29 13:30:34;;;;;;;;;;;10.60;99.90;;;;;;5098342;28;19920;-69
2023/12/29 13:33:06;;;;;;;;;;;10.60;99.90;;;;;;5099476;28;19924;-70
2023/12/29 13:35:36;;;;;;;;;;;10.70;99.90;;;;;;5099576;28;19959;-69
2023/12/29 13:38:06;;;;;;;;;;;10.70;99.90;;;;;;5096609;28;20230;-69
2023/12/29 13:40:37;;;;;;;;;;;10.60;99.90;;;;;;5104059;28;20045;-69
2023/12/29 13:43:04;;;;;;;;;;;10.60;99.90;;;;;;5097156;28;19983;-69
2023/12/29 13:45:31;;;;;;;;;;;10.60;99.90;;;;;;5099435;28;19958;-69
2023/12/29 13:47:59;;;;;;;;;;;10.60;99.90;;;;;;5091821;28;19994;-71
2023/12/29 13:50:25;;;;;;;;;;;10.60;99.90;;;;;;5096439;28;19959;-70
2023/12/29 13:52:53;;;;;;;;;;;10.60;99.90;;;;;;5095618;28;19995;-69
2023/12/29 13:55:23;;;;;;;;;;;10.60;99.90;;;;;;5096175;28;19955;-69
2023/12/29 13:57:50;;;;;;;;;;;10.60;99.90;;;;;;5092262;28;19954;-70
2023/12/29 14:00:18;;;;;;;;;;;10.60;99.90;;;;;;5095701;28;19926;-69
2023/12/29 14:02:45;;;;;;;;;;;10.60;99.90;;;;;;5103898;28;19920;-69
2023/12/29 14:05:15;;;;;;;;;;;10.60;99.90;;;;;;5104767;28;19991;-71
2023/12/29 14:07:45;;;;;;;;;;;10.60;99.90;;;;;;5104643;28;20175;-69
2023/12/29 14:10:12;;;;;;;;;;;10.50;99.90;;;;;;5100134;28;19954;-69
2023/12/29 14:12:39;;;;;;;;;;;10.50;99.90;;;;;;5104050;28;20173;-69
2023/12/29 14:15:06;;;;;;;;;;;10.50;99.90;;;;;;5104311;28;19931;-69
2023/12/29 14:17:33;;;;;;;;;;;10.50;99.90;;;;;;5104292;28;19970;-69
2023/12/29 14:20:05;;;;;;;;;;;10.50;99.90;;;;;;5096948;28;19927;-70
2023/12/29 14:22:32;;;;;;;;;;;10.50;99.90;;;;;;5097429;28;19926;-70
2023/12/29 14:25:00;;;;;;;;;;;10.40;99.90;;;;;;5104388;28;19987;-69
2023/12/29 14:27:28;;;;;;;;;;;10.30;99.90;;;;;;5104028;28;19920;-69
2023/12/29 14:29:55;;;;;;;;;;;10.30;99.90;;;;;;5093369;28;19920;-70